createdAt,value
2018-09-13T00:00:37.695Z,14.80
2018-09-13T00:03:06.326Z,14.80
2018-09-13T00:05:34.737Z,14.80
2018-09-13T00:08:03.250Z,14.80
2018-09-13T00:10:31.657Z,14.80
2018-09-13T00:13:00.072Z,14.80
2018-09-13T00:15:28.462Z,14.80
2018-09-13T00:17:56.848Z,14.80
2018-09-13T00:20:25.287Z,14.80
2018-09-13T00:22:53.706Z,14.80
2018-09-13T00:25:22.100Z,14.70
2018-09-13T00:27:50.499Z,14.70
2018-09-13T00:30:18.903Z,14.60
2018-09-13T00:32:47.273Z,14.60
2018-09-13T00:35:15.692Z,14.60
2018-09-13T00:37:44.182Z,14.60
2018-09-13T00:40:12.569Z,14.60
2018-09-13T00:42:40.960Z,14.60
2018-09-13T00:45:09.412Z,14.60
2018-09-13T00:47:42.000Z,14.60
2018-09-13T00:50:10.604Z,14.60
2018-09-13T00:52:39.006Z,14.60
2018-09-13T00:55:07.612Z,14.50
2018-09-13T00:57:36.491Z,14.50
2018-09-13T01:00:05.270Z,14.50
2018-09-13T01:02:33.666Z,14.50
2018-09-13T01:05:02.099Z,14.50
2018-09-13T01:07:30.608Z,14.40
2018-09-13T01:09:58.999Z,14.40
2018-09-13T01:12:27.385Z,14.30
2018-09-13T01:14:55.788Z,14.30
2018-09-13T01:17:24.215Z,14.30
2018-09-13T01:19:52.629Z,14.30
2018-09-13T01:22:21.053Z,14.30
2018-09-13T01:24:53.672Z,14.30
2018-09-13T01:27:22.200Z,14.30
2018-09-13T01:29:50.597Z,14.20
2018-09-13T01:32:19.000Z,14.20
2018-09-13T01:34:47.389Z,14.20
2018-09-13T01:37:15.788Z,14.10
2018-09-13T01:39:44.184Z,14.00
2018-09-13T01:42:12.596Z,14.00
2018-09-13T01:44:40.977Z,14.10
2018-09-13T01:47:09.384Z,14.10
2018-09-13T01:49:37.822Z,14.10
2018-09-13T01:52:06.485Z,14.10
2018-09-13T01:54:35.327Z,14.10
2018-09-13T01:57:03.756Z,14.10
2018-09-13T01:59:32.165Z,14.00
2018-09-13T02:02:00.560Z,14.10
2018-09-13T02:04:28.949Z,14.10
2018-09-13T02:06:57.359Z,14.10
2018-09-13T02:09:25.753Z,14.10
2018-09-13T02:11:54.156Z,14.00
2018-09-13T02:14:22.713Z,14.00
2018-09-13T02:16:51.143Z,14.00
2018-09-13T02:19:19.540Z,14.00
2018-09-13T02:21:47.924Z,14.00
2018-09-13T02:24:16.452Z,14.00
2018-09-13T02:26:44.828Z,14.00
2018-09-13T02:29:13.215Z,14.00
2018-09-13T02:31:41.624Z,14.00
2018-09-13T02:34:10.014Z,13.90
2018-09-13T02:36:38.408Z,14.00
2018-09-13T02:39:08.485Z,14.00
2018-09-13T02:41:37.056Z,13.90
2018-09-13T02:44:06.537Z,14.00
2018-09-13T02:46:34.928Z,14.00
2018-09-13T02:49:03.372Z,13.90
2018-09-13T02:51:31.710Z,14.00
2018-09-13T02:54:00.501Z,14.00
2018-09-13T02:56:29.063Z,13.90
2018-09-13T02:58:57.457Z,14.00
2018-09-13T03:01:26.123Z,14.00
2018-09-13T03:03:54.560Z,14.00
2018-09-13T03:06:22.941Z,14.10
2018-09-13T03:08:51.340Z,14.00
2018-09-13T03:11:19.807Z,14.00
2018-09-13T03:13:48.225Z,14.00
2018-09-13T03:16:16.604Z,14.00
2018-09-13T03:18:45.035Z,14.00
2018-09-13T03:21:13.421Z,14.00
2018-09-13T03:23:41.880Z,14.00
2018-09-13T03:26:10.310Z,14.00
2018-09-13T03:28:38.952Z,14.00
2018-09-13T03:31:07.496Z,14.00
2018-09-13T03:33:37.036Z,14.00
2018-09-13T03:36:05.436Z,14.00
2018-09-13T03:38:33.868Z,14.00
2018-09-13T03:41:02.273Z,14.00
2018-09-13T03:43:30.656Z,14.00
2018-09-13T03:45:59.057Z,13.90
2018-09-13T03:48:27.466Z,13.90
2018-09-13T03:50:55.865Z,14.00
2018-09-13T03:53:24.266Z,13.90
2018-09-13T03:55:52.679Z,13.90
2018-09-13T03:58:21.069Z,13.90
2018-09-13T04:00:49.527Z,13.90
2018-09-13T04:03:18.239Z,13.90
2018-09-13T04:05:46.655Z,13.90
2018-09-13T04:08:15.149Z,13.90
2018-09-13T04:10:43.573Z,13.90
2018-09-13T04:13:12.084Z,13.90
2018-09-13T04:15:40.713Z,13.90
2018-09-13T04:18:09.105Z,13.90
2018-09-13T04:20:37.582Z,13.90
2018-09-13T04:23:06.362Z,13.90
2018-09-13T04:25:34.754Z,13.90
2018-09-13T04:28:03.142Z,13.90
2018-09-13T04:30:32.853Z,13.90
2018-09-13T04:33:01.301Z,13.80
2018-09-13T04:35:29.720Z,13.90
2018-09-13T04:37:58.101Z,13.90
2018-09-13T04:40:26.524Z,13.80
2018-09-13T04:42:54.929Z,13.80
2018-09-13T04:45:23.373Z,13.80
2018-09-13T04:47:51.759Z,13.80
2018-09-13T04:50:20.304Z,13.70
2018-09-13T04:52:48.717Z,13.70
2018-09-13T04:55:17.127Z,13.70
2018-09-13T04:57:45.519Z,13.70
2018-09-13T05:00:14.003Z,13.80
2018-09-13T05:02:42.396Z,13.70
2018-09-13T05:05:10.789Z,13.70
2018-09-13T05:07:39.213Z,13.60
2018-09-13T05:10:07.828Z,13.70
2018-09-13T05:12:36.253Z,13.70
2018-09-13T05:15:04.684Z,13.60
2018-09-13T05:17:33.114Z,13.60
2018-09-13T05:20:01.627Z,13.60
2018-09-13T05:22:30.029Z,13.50
2018-09-13T05:24:58.469Z,13.50
2018-09-13T05:27:26.860Z,13.50
2018-09-13T05:29:55.301Z,13.50
2018-09-13T05:32:23.696Z,13.50
2018-09-13T05:34:52.173Z,13.50
2018-09-13T05:37:20.566Z,13.50
2018-09-13T05:39:48.989Z,13.40
2018-09-13T05:42:17.371Z,13.40
2018-09-13T05:44:46.135Z,13.50
2018-09-13T05:47:14.495Z,13.50
2018-09-13T05:49:43.044Z,13.50
2018-09-13T05:52:11.465Z,13.50
2018-09-13T05:54:40.180Z,13.50
2018-09-13T05:57:08.594Z,13.50
2018-09-13T05:59:37.016Z,13.50
2018-09-13T06:02:05.391Z,13.60
2018-09-13T06:04:33.833Z,13.60
2018-09-13T06:07:02.228Z,13.70
2018-09-13T06:09:30.655Z,13.70
2018-09-13T06:11:59.326Z,13.70
2018-09-13T06:14:27.813Z,13.70
2018-09-13T06:16:56.240Z,13.70
2018-09-13T06:19:24.790Z,13.70
2018-09-13T06:21:53.176Z,13.70
2018-09-13T06:24:21.584Z,13.80
2018-09-13T06:26:50.145Z,13.90
2018-09-13T06:29:18.546Z,13.90
2018-09-13T06:31:46.971Z,13.90
2018-09-13T06:34:18.317Z,13.90
2018-09-13T06:36:46.738Z,14.00
2018-09-13T06:39:15.200Z,14.00
2018-09-13T06:41:43.580Z,14.00
2018-09-13T06:44:11.992Z,14.00
2018-09-13T06:46:40.732Z,14.00
2018-09-13T06:49:09.164Z,14.00
2018-09-13T06:51:37.691Z,14.00
2018-09-13T06:54:06.384Z,14.10
2018-09-13T06:56:34.728Z,14.10
2018-09-13T06:59:03.201Z,14.10
2018-09-13T07:01:31.625Z,14.20
2018-09-13T07:04:00.001Z,14.20
2018-09-13T07:06:28.445Z,14.30
2018-09-13T07:08:57.070Z,14.20
2018-09-13T07:11:25.508Z,14.30
2018-09-13T07:13:53.954Z,14.40
2018-09-13T07:16:22.384Z,14.50
2018-09-13T07:18:50.778Z,14.50
2018-09-13T07:21:19.213Z,14.50
2018-09-13T07:23:47.620Z,14.60
2018-09-13T07:26:16.026Z,14.60
2018-09-13T07:28:44.603Z,14.70
2018-09-13T07:31:13.021Z,14.70
2018-09-13T07:33:41.438Z,14.80
2018-09-13T07:36:09.839Z,14.80
2018-09-13T07:38:38.228Z,14.90
2018-09-13T07:41:06.781Z,14.90
2018-09-13T07:43:35.193Z,14.80
2018-09-13T07:46:03.604Z,14.90
2018-09-13T07:48:32.021Z,14.80
2018-09-13T07:51:00.460Z,14.90
2018-09-13T07:53:28.861Z,14.90
2018-09-13T07:55:57.260Z,14.90
2018-09-13T07:58:25.809Z,15.00
2018-09-13T08:00:54.218Z,14.90
2018-09-13T08:03:22.613Z,15.00
2018-09-13T08:05:51.021Z,15.10
2018-09-13T08:08:19.432Z,15.30
2018-09-13T08:10:47.845Z,15.20
2018-09-13T08:13:16.249Z,15.20
2018-09-13T08:15:44.958Z,15.20
2018-09-13T08:18:13.348Z,15.30
2018-09-13T08:20:41.804Z,15.40
2018-09-13T08:23:10.288Z,15.50
2018-09-13T08:25:38.669Z,15.50
2018-09-13T08:28:07.131Z,15.50
2018-09-13T08:30:35.513Z,15.40
2018-09-13T08:33:03.948Z,15.30
2018-09-13T08:35:32.340Z,15.50
2018-09-13T08:38:00.739Z,15.50
2018-09-13T08:40:29.256Z,15.50
2018-09-13T08:42:57.738Z,15.50
2018-09-13T08:45:26.117Z,15.60
2018-09-13T08:47:54.556Z,15.70
2018-09-13T08:50:22.959Z,15.80
2018-09-13T08:52:51.405Z,15.80
2018-09-13T08:55:19.865Z,15.80
2018-09-13T08:57:48.354Z,15.70
2018-09-13T09:00:16.776Z,15.60
2018-09-13T09:02:45.246Z,15.50
2018-09-13T09:05:13.645Z,15.50
2018-09-13T09:07:42.319Z,15.70
2018-09-13T09:10:10.752Z,15.90
2018-09-13T09:12:39.281Z,16.00
2018-09-13T09:15:07.837Z,16.20
2018-09-13T09:17:36.284Z,16.30
2018-09-13T09:20:04.752Z,16.20
2018-09-13T09:22:33.198Z,15.90
2018-09-13T09:25:01.636Z,16.00
2018-09-13T09:27:30.102Z,16.10
2018-09-13T09:29:58.645Z,16.00
2018-09-13T09:32:27.442Z,16.10
2018-09-13T09:34:55.865Z,16.40
2018-09-13T09:37:24.265Z,16.60
2018-09-13T09:39:52.703Z,16.70
2018-09-13T09:42:21.221Z,16.60
2018-09-13T09:44:49.868Z,16.70
2018-09-13T09:47:18.317Z,16.80
2018-09-13T09:49:46.818Z,16.70
2018-09-13T09:52:15.382Z,16.70
2018-09-13T09:54:43.800Z,16.90
2018-09-13T09:57:12.365Z,16.90
2018-09-13T09:59:40.816Z,16.90
2018-09-13T10:02:14.514Z,16.70
2018-09-13T10:04:43.077Z,16.50
2018-09-13T10:07:11.492Z,16.50
2018-09-13T10:09:39.937Z,16.40
2018-09-13T10:12:08.517Z,16.70
2018-09-13T10:14:36.972Z,16.80
2018-09-13T10:17:10.747Z,16.90
2018-09-13T10:19:44.552Z,16.90
2018-09-13T10:22:18.270Z,17.10
2018-09-13T10:24:52.095Z,17.40
2018-09-13T10:27:25.833Z,17.60
2018-09-13T10:29:59.672Z,17.80
2018-09-13T10:32:33.617Z,17.70
2018-09-13T10:35:07.374Z,17.70
2018-09-13T10:37:41.047Z,17.80
2018-09-13T10:40:14.906Z,17.70
2018-09-13T10:42:48.540Z,17.80
2018-09-13T10:45:22.301Z,18.10
2018-09-13T10:47:56.925Z,18.60
2018-09-13T10:50:26.816Z,18.80
2018-09-13T10:53:05.794Z,19.10
2018-09-13T10:55:34.371Z,19.30
2018-09-13T10:58:02.624Z,19.60
2018-09-13T11:00:31.033Z,19.90
2018-09-13T11:02:59.463Z,20.40
2018-09-13T11:05:27.884Z,20.50
2018-09-13T11:07:56.245Z,20.10
2018-09-13T11:10:24.829Z,20.10
2018-09-13T11:12:55.221Z,19.70
2018-09-13T11:15:28.804Z,19.70
2018-09-13T11:17:57.268Z,19.90
2018-09-13T11:20:25.699Z,20.20
2018-09-13T11:22:54.889Z,20.50
2018-09-13T11:25:24.312Z,20.20
2018-09-13T11:27:52.921Z,20.00
2018-09-13T11:30:21.328Z,20.10
2018-09-13T11:32:49.793Z,20.10
2018-09-13T11:35:18.298Z,19.90
2018-09-13T11:37:46.759Z,20.10
2018-09-13T11:40:15.593Z,19.90
2018-09-13T11:42:44.663Z,20.10
2018-09-13T11:45:13.177Z,20.00
2018-09-13T11:47:42.273Z,20.50
2018-09-13T11:50:10.759Z,20.50
2018-09-13T11:52:39.188Z,21.50
2018-09-13T11:55:07.979Z,22.30
2018-09-13T11:57:36.696Z,23.50
2018-09-13T12:00:05.193Z,25.10
2018-09-13T12:02:33.588Z,24.10
2018-09-13T12:05:02.438Z,22.50
2018-09-13T12:07:30.852Z,22.00
2018-09-13T12:09:59.249Z,21.80
2018-09-13T12:12:27.794Z,22.40
2018-09-13T12:14:56.285Z,23.40
2018-09-13T12:17:24.688Z,23.10
2018-09-13T12:19:53.069Z,22.00
2018-09-13T12:22:21.574Z,21.20
2018-09-13T12:24:49.885Z,20.90
2018-09-13T12:27:18.330Z,21.10
2018-09-13T12:29:46.737Z,21.50
2018-09-13T12:32:15.186Z,22.00
2018-09-13T12:34:43.608Z,22.30
2018-09-13T12:37:12.037Z,22.60
2018-09-13T12:39:40.608Z,22.70
2018-09-13T12:42:09.044Z,22.70
2018-09-13T12:44:37.500Z,22.30
2018-09-13T12:47:06.030Z,21.40
2018-09-13T12:49:34.625Z,21.00
2018-09-13T12:52:03.093Z,20.90
2018-09-13T12:54:31.508Z,20.80
2018-09-13T12:57:00.094Z,21.10
2018-09-13T12:59:28.537Z,21.00
2018-09-13T13:01:56.980Z,20.60
2018-09-13T13:04:25.383Z,20.60
2018-09-13T13:06:53.808Z,20.30
2018-09-13T13:09:22.189Z,20.60
2018-09-13T13:11:50.592Z,20.80
2018-09-13T13:14:19.080Z,21.20
2018-09-13T13:16:47.563Z,21.10
2018-09-13T13:19:16.144Z,21.40
2018-09-13T13:21:44.551Z,21.90
2018-09-13T13:24:12.960Z,21.60
2018-09-13T13:26:41.378Z,21.00
2018-09-13T13:29:10.048Z,20.70
2018-09-13T13:31:38.464Z,20.30
2018-09-13T13:34:07.193Z,19.90
2018-09-13T13:36:36.465Z,19.90
2018-09-13T13:39:07.472Z,20.20
2018-09-13T13:41:36.040Z,20.60
2018-09-13T13:44:04.496Z,21.10
2018-09-13T13:46:32.950Z,21.60
2018-09-13T13:49:01.390Z,21.10
2018-09-13T13:51:29.849Z,20.80
2018-09-13T13:53:58.653Z,20.50
2018-09-13T13:56:27.066Z,20.40
2018-09-13T13:58:55.484Z,20.90
2018-09-13T14:01:23.925Z,20.90
2018-09-13T14:03:52.580Z,21.20
2018-09-13T14:06:20.981Z,21.80
2018-09-13T14:08:49.543Z,22.20
2018-09-13T14:11:18.132Z,22.50
2018-09-13T14:13:46.569Z,23.00
2018-09-13T14:16:14.970Z,23.00
2018-09-13T14:18:43.456Z,22.90
2018-09-13T14:21:11.871Z,22.70
2018-09-13T14:23:40.385Z,22.50
2018-09-13T14:26:08.789Z,22.40
2018-09-13T14:28:37.210Z,22.50
2018-09-13T14:31:05.709Z,22.50
2018-09-13T14:33:34.132Z,22.40
2018-09-13T14:36:02.565Z,22.40
2018-09-13T14:38:30.963Z,22.40
2018-09-13T14:40:59.385Z,22.40
2018-09-13T14:43:27.952Z,22.30
2018-09-13T14:45:56.425Z,21.90
2018-09-13T14:48:24.780Z,21.80
2018-09-13T14:50:53.235Z,21.40
2018-09-13T14:53:21.629Z,21.10
2018-09-13T14:55:50.055Z,21.00
2018-09-13T14:58:18.472Z,21.00
2018-09-13T15:00:47.011Z,20.90
2018-09-13T15:03:15.558Z,20.80
2018-09-13T15:05:44.535Z,20.50
2018-09-13T15:08:12.932Z,20.40
2018-09-13T15:10:41.373Z,20.60
2018-09-13T15:13:09.783Z,20.80
2018-09-13T15:15:38.197Z,20.90
2018-09-13T15:18:06.652Z,21.00
2018-09-13T15:20:35.229Z,21.10
2018-09-13T15:23:03.733Z,20.90
2018-09-13T15:25:32.145Z,21.00
2018-09-13T15:28:00.603Z,21.00
2018-09-13T15:30:29.321Z,21.00
2018-09-13T15:32:57.771Z,20.90
2018-09-13T15:35:26.452Z,21.10
2018-09-13T15:37:54.880Z,21.20
2018-09-13T15:40:23.318Z,21.10
2018-09-13T15:42:51.739Z,21.10
2018-09-13T15:45:20.329Z,21.00
2018-09-13T15:47:48.867Z,20.70
2018-09-13T15:50:17.275Z,20.60
2018-09-13T15:52:45.787Z,20.60
2018-09-13T15:55:14.177Z,20.60
2018-09-13T15:57:42.614Z,20.60
2018-09-13T16:00:11.034Z,20.20
2018-09-13T16:02:39.483Z,20.10
2018-09-13T16:05:07.912Z,19.90
2018-09-13T16:07:36.356Z,19.80
2018-09-13T16:10:04.832Z,19.80
2018-09-13T16:12:33.391Z,19.90
2018-09-13T16:15:01.745Z,19.90
2018-09-13T16:17:30.173Z,19.90
2018-09-13T16:19:58.768Z,20.00
2018-09-13T16:22:27.178Z,20.00
2018-09-13T16:24:55.569Z,20.00
2018-09-13T16:27:23.976Z,20.00
2018-09-13T16:29:52.432Z,20.00
2018-09-13T16:32:22.170Z,20.00
2018-09-13T16:34:51.094Z,20.00
2018-09-13T16:37:24.696Z,20.10
2018-09-13T16:39:58.404Z,20.10
2018-09-13T16:42:37.224Z,20.00
2018-09-13T16:45:05.986Z,19.90
2018-09-13T16:47:40.084Z,19.80
2018-09-13T16:50:08.377Z,19.60
2018-09-13T16:52:36.796Z,19.70
2018-09-13T16:55:05.441Z,19.60
2018-09-13T16:57:33.976Z,19.60
2018-09-13T17:00:02.413Z,19.50
2018-09-13T17:02:30.822Z,19.40
2018-09-13T17:04:59.309Z,19.30
2018-09-13T17:07:27.711Z,19.30
2018-09-13T17:09:56.183Z,19.30
2018-09-13T17:12:24.534Z,19.20
2018-09-13T17:14:52.991Z,19.00
2018-09-13T17:17:21.400Z,19.00
2018-09-13T17:22:24.121Z,18.70
2018-09-13T17:24:52.560Z,18.50
2018-09-13T17:27:20.975Z,18.40
2018-09-13T17:29:49.549Z,18.20
2018-09-13T17:32:17.935Z,18.10
2018-09-13T17:34:46.460Z,18.00
2018-09-13T17:37:14.914Z,17.90
2018-09-13T17:39:43.324Z,17.90
2018-09-13T17:42:11.778Z,17.80
2018-09-13T17:44:40.233Z,17.70
2018-09-13T17:47:08.731Z,17.70
2018-09-13T17:49:37.344Z,17.60
2018-09-13T17:52:05.853Z,17.60
2018-09-13T17:54:34.418Z,17.40
2018-09-13T17:57:03.081Z,17.30
2018-09-13T17:59:31.521Z,17.20
2018-09-13T18:01:59.943Z,17.00
2018-09-13T18:04:28.399Z,16.90
2018-09-13T18:06:56.910Z,16.80
2018-09-13T18:09:25.483Z,16.70
2018-09-13T18:11:54.114Z,16.70
2018-09-13T18:14:22.553Z,16.60
2018-09-13T18:16:51.042Z,16.50
2018-09-13T18:19:19.501Z,16.50
2018-09-13T18:21:48.089Z,16.40
2018-09-13T18:24:16.596Z,16.30
2018-09-13T18:26:46.528Z,16.30
2018-09-13T18:29:14.947Z,16.10
2018-09-13T18:31:43.377Z,16.00
2018-09-13T18:34:12.532Z,15.80
2018-09-13T18:36:40.985Z,15.70
2018-09-13T18:39:10.721Z,15.60
2018-09-13T18:41:39.336Z,15.50
2018-09-13T18:44:07.752Z,15.30
2018-09-13T18:46:36.290Z,15.20
2018-09-13T18:49:04.888Z,15.10
2018-09-13T18:51:33.967Z,15.00
2018-09-13T18:54:03.255Z,14.80
2018-09-13T18:56:33.782Z,14.70
2018-09-13T18:59:03.049Z,14.70
2018-09-13T19:01:32.172Z,14.70
2018-09-13T19:04:00.606Z,14.70
2018-09-13T19:06:29.057Z,14.60
2018-09-13T19:08:57.510Z,14.60
2018-09-13T19:11:26.955Z,14.50
2018-09-13T19:13:56.062Z,14.50
2018-09-13T19:16:25.114Z,14.40
2018-09-13T19:18:53.649Z,14.40
2018-09-13T19:21:22.142Z,14.30
2018-09-13T19:23:50.581Z,14.20
2018-09-13T19:26:19.041Z,13.90
2018-09-13T19:28:48.138Z,13.60
2018-09-13T19:31:16.641Z,13.50
2018-09-13T19:33:46.005Z,13.40
2018-09-13T19:36:14.449Z,13.30
2018-09-13T19:38:43.174Z,13.20
2018-09-13T19:41:11.929Z,13.40
2018-09-13T19:43:40.522Z,13.30
2018-09-13T19:46:09.113Z,13.20
2018-09-13T19:48:37.537Z,13.10
2018-09-13T19:51:06.392Z,13.10
2018-09-13T19:53:34.915Z,13.00
2018-09-13T19:56:03.548Z,12.90
2018-09-13T19:58:31.949Z,12.80
2018-09-13T20:01:00.376Z,12.90
2018-09-13T20:03:29.910Z,12.80
2018-09-13T20:05:58.486Z,12.80
2018-09-13T20:08:26.878Z,12.80
2018-09-13T20:10:55.312Z,12.80
2018-09-13T20:13:23.875Z,12.80
2018-09-13T20:15:52.368Z,12.80
2018-09-13T20:18:20.959Z,12.80
2018-09-13T20:20:49.585Z,12.80
2018-09-13T20:23:18.955Z,12.90
2018-09-13T20:25:47.462Z,13.00
2018-09-13T20:28:16.468Z,12.90
2018-09-13T20:30:44.911Z,12.90
2018-09-13T20:33:13.380Z,12.90
2018-09-13T20:35:41.825Z,12.80
2018-09-13T20:38:10.261Z,12.80
2018-09-13T20:40:38.752Z,12.80
2018-09-13T20:43:07.447Z,12.80
2018-09-13T20:45:35.940Z,12.70
2018-09-13T20:48:04.405Z,12.70
2018-09-13T20:50:32.832Z,12.70
2018-09-13T20:53:01.320Z,12.70
2018-09-13T20:55:29.760Z,12.60
2018-09-13T20:57:58.182Z,12.60
2018-09-13T21:00:26.713Z,12.70
2018-09-13T21:02:55.119Z,12.80
2018-09-13T21:05:23.505Z,13.00
2018-09-13T21:07:51.971Z,13.10
2018-09-13T21:10:20.496Z,13.20
2018-09-13T21:12:48.905Z,13.30
2018-09-13T21:15:17.317Z,13.30
2018-09-13T21:17:45.843Z,13.40
2018-09-13T21:20:14.333Z,13.30
2018-09-13T21:22:42.750Z,13.30
2018-09-13T21:25:11.202Z,13.30
2018-09-13T21:27:39.723Z,13.20
2018-09-13T21:30:08.213Z,13.10
2018-09-13T21:32:36.716Z,13.10
2018-09-13T21:35:05.249Z,13.00
2018-09-13T21:37:33.850Z,13.00
2018-09-13T21:40:02.328Z,12.90
2018-09-13T21:42:30.944Z,12.80
2018-09-13T21:44:59.853Z,12.80
2018-09-13T21:47:28.315Z,12.80
2018-09-13T21:49:56.726Z,12.80
2018-09-13T21:52:25.141Z,12.70
2018-09-13T21:54:53.620Z,12.80
2018-09-13T21:57:22.095Z,12.80
2018-09-13T21:59:50.545Z,12.70
2018-09-13T22:02:19.016Z,12.70
2018-09-13T22:04:47.470Z,12.70
2018-09-13T22:07:15.850Z,12.60
2018-09-13T22:09:44.281Z,12.60
2018-09-13T22:12:13.394Z,12.60
2018-09-13T22:14:42.164Z,12.50
2018-09-13T22:17:11.113Z,12.50
2018-09-13T22:19:39.545Z,12.50
2018-09-13T22:22:08.180Z,12.50
2018-09-13T22:24:36.611Z,12.40
2018-09-13T22:27:05.045Z,12.40
2018-09-13T22:29:33.445Z,12.40
2018-09-13T22:32:01.837Z,12.40
2018-09-13T22:34:30.229Z,12.30
2018-09-13T22:36:58.616Z,12.30
2018-09-13T22:39:27.024Z,12.20
2018-09-13T22:41:55.429Z,12.10
2018-09-13T22:44:23.829Z,12.10
2018-09-13T22:46:52.209Z,12.10
2018-09-13T22:49:20.638Z,12.00
2018-09-13T22:51:49.203Z,11.90
2018-09-13T22:54:17.599Z,11.70
2018-09-13T22:56:46.005Z,11.50
2018-09-13T22:59:14.389Z,11.40
2018-09-13T23:01:42.772Z,11.40
2018-09-13T23:04:11.154Z,11.30
2018-09-13T23:06:40.486Z,11.20
2018-09-13T23:09:10.444Z,11.10
2018-09-13T23:11:38.875Z,11.10
2018-09-13T23:14:07.281Z,11.10
2018-09-13T23:16:35.993Z,11.10
2018-09-13T23:19:04.429Z,11.10
2018-09-13T23:21:32.870Z,11.00
2018-09-13T23:24:01.268Z,11.00
2018-09-13T23:26:29.808Z,11.00
2018-09-13T23:28:58.381Z,11.00
2018-09-13T23:31:26.777Z,10.90
2018-09-13T23:33:55.539Z,10.90
2018-09-13T23:36:24.028Z,10.90
2018-09-13T23:38:52.429Z,10.90
2018-09-13T23:41:21.201Z,10.90
2018-09-13T23:43:49.972Z,10.90
2018-09-13T23:46:18.385Z,10.90
2018-09-13T23:48:46.775Z,10.90
2018-09-13T23:51:15.168Z,10.80
2018-09-13T23:53:43.571Z,10.80
2018-09-13T23:56:12.068Z,10.80
2018-09-13T23:58:40.470Z,10.80
